Relevés horaires Matro (Suisse)


Relevés horaires à Matro - Samedi 01 Nov. 2014
Heure UTC1 Température [°C] Vent [km/h] Hum. [%] Pres.4 [hPa] Visi. [Km] Nébu. [octa] Préc.5 [mm] Cond.
2m. Res. Ros. Dir.2 Vit. Moy. Raf.3
23:00 4.9 2.3 -3.0 SE 11.1 14.8 16.7 57 850(-0.4/3h) -- -- -- --
22:00 4.8 1.5 -2.7 SE 14.8 14.8 16.7 58 850(-0.2/3h) -- -- -- --
21:00 5.1 2.2 -2.3 SE 13.0 18.5 20.4 59 850(0.0/3h) -- -- -- --
20:00 5.2 1.7 -2.2 SE 16.7 16.7 18.5 59 850(0.1/3h) -- -- -- --
19:00 5.3 1.9 -1.5 SSE 16.7 18.5 20.4 61 850(0.3/3h) -- -- -- --
18:00 5.3 1.9 -2.0 SSE 16.7 24.1 27.8 59 850(0.2/3h) -- -- -- --
17:00 5.7 1.9 -2.2 SSE 20.4 24.1 27.8 57 850(0.0/3h) -- -- -- --
16:00 6.2 2.3 -2.2 SSE 22.2 22.2 27.8 55 850(-0.3/3h) -- -- -- --
15:00 6.9 3.6 -1.4 SSE 18.5 18.5 27.8 55 850(-0.5/3h) -- -- -- --
14:00 7.3 4.1 -0.9 SSE 18.5 18.5 27.8 56 850(-0.6/3h) -- -- -- --
13:00 7.9 4.9 -0.8 SSE 18.5 16.7 25.9 54 850(-0.6/3h) -- -- -- --
12:00 7.4 4.7 -1.1 SSE 14.8 18.5 25.9 55 850(-0.1/3h) -- -- -- --
11:00 7.8 5.5 -1.5 SSE 13.0 13.0 24.1 52 850(0.2/3h) -- -- -- --
10:00 7.7 5.7 -1.7 SSE 11.1 16.7 25.9 51 850(0.6/3h) -- -- -- --
09:00 6.7 3.4 -2.2 SE 18.5 18.5 25.9 53 850 -- -- -- --
08:00 6.3 3.4 -2.5 SE 14.8 14.8 20.4 53 850(0.7/3h) -- -- -- --
07:00 6.1 6.1 -4.6 E 1.9 3.7 5.6 46 850(0.4/3h) -- -- -- --
06:00 6.9 6.9 -5.1 NO 3.7 18.5 22.2 42 850(0.1/3h) -- -- -- --
05:00 6.6 5.2 -4.7 NO 7.4 9.3 13.0 44 850(-0.5/3h) -- -- -- --
04:00 6.9 5.1 -4.6 NO 9.3 13.0 20.4 44 850(-0.9/3h) -- -- -- --
03:00 7.1 5 -4.4 NO 11.1 18.5 22.2 44 850(-0.8/3h) -- -- -- --
02:00 7.0 4.5 -3.9 NNO 13.0 18.5 22.2 46 850(-0.7/3h) -- -- -- --
01:00 7.0 4.2 -3.4 NNO 14.8 16.7 18.5 47 850(-0.5/3h) -- -- -- --
00:00 7.1 4.6 -3.0 NO 13.0 27.8 35.2 49 850(-0.4/3h) -- -- -- --

1 Coordinated Universal Time. Actuellement il est 12:00 locale et 10:00 UTC.

2 Le vent souffle depuis la direction indiquée vers la direction oposée.

3 Les rafales max. sont disponible 40 min après l'heure du relevé.

4 Pour les stations d'altitude (plus de 600m) le géopotentiel du niveau le plus proche de la pression obligatoire est indiqué.

5 Les stations disposant d'un diffuseur peuvent indiquer "trace". Cela signifie que des précipitations ont touchés le sol mais que la quantité est inférieure à 0.1 mm.

Copyright

Les données affichées sur cette page sont la propriété exclusive de Météo Suisse.

Récapitulatif de la journée
Température [°C] Vent [km/h] Ensoleillement4 [h] Precipitations totale5 [mm] Pression [Hpa]
Min1 Max.2 Moy.3 Max. Min Max.
6.6 8.1 17.3 35.2 8 h 30 min 0 850.0 850.0

1 Température minimale relevée entre 18:00 UTC la veille et 18:00 UTC le jour donné.

2 Température maximale relevée entre 06:00 UTC le jour donné et 06:00 UTC le lendemain.

3 Vent moyen de la journée basé sur les relevés horaires.

4 Ensoleillement en heures relevé entre 06:00 UTC la veille et 06:00 UTC le jour donné.

5 Précipitations totales tombées entre 06:00 UTC la jour donné et 06:00 UTC le lendemain.

Graphiques horaires